Terminal Aerodrome Forecast
Issued by NWS

Current Version | Previous Version | Text Only | Print | Product List | Glossary On
Versions: 1 2 3 4 5 6 7 8 9 10 11 12 13 14 15
962
FTUS43 KGRB 030538
TAFAUW
TAF
KAUW 030538Z 0306/0406 28004KT P6SM OVC015
     FM031600 27004KT P6SM BKN025
     FM032100 23003KT P6SM BKN030=

USA.gov is the U.S. government's official web portal to all federal, state and local government web resources and services.